createdAt,value
2023-03-14T00:01:54.305Z,96330.06
2023-03-14T00:04:25.981Z,96306.63
2023-03-14T00:06:57.042Z,96310.25
2023-03-14T00:09:31.263Z,96309.53
2023-03-14T00:12:02.246Z,96305.72
2023-03-14T00:14:34.586Z,96282.66
2023-03-14T00:17:05.879Z,96294.41
2023-03-14T00:19:37.737Z,96306.03
2023-03-14T00:22:09.046Z,96281.22
2023-03-14T00:24:42.320Z,96284.75
2023-03-14T00:27:16.397Z,96296.69
2023-03-14T00:29:48.212Z,96278.72
2023-03-14T00:32:33.597Z,96290.72
2023-03-14T00:35:11.027Z,96277.34
2023-03-14T00:37:43.475Z,96291.22
2023-03-14T00:40:19.168Z,96308.50
2023-03-14T00:42:49.100Z,96304.56
2023-03-14T00:45:23.764Z,96284.38
2023-03-14T00:47:56.192Z,96294.56
2023-03-14T00:50:27.184Z,96279.16
2023-03-14T00:52:57.804Z,96275.53
2023-03-14T00:55:30.241Z,96263.50
2023-03-14T00:58:02.144Z,96238.31
2023-03-14T01:00:33.787Z,96236.28
2023-03-14T01:03:07.027Z,96262.41
2023-03-14T01:05:37.532Z,96258.94
2023-03-14T01:08:09.698Z,96249.44
2023-03-14T01:10:43.198Z,96235.22
2023-03-14T01:13:14.708Z,96240.75
2023-03-14T01:15:47.141Z,96219.28
2023-03-14T01:18:17.585Z,96216.91
2023-03-14T01:20:48.814Z,96184.28
2023-03-14T01:23:19.671Z,96163.84
2023-03-14T01:25:56.731Z,96183.59
2023-03-14T01:28:28.775Z,96184.63
2023-03-14T01:31:00.948Z,96155.59
2023-03-14T01:33:33.208Z,96157.03
2023-03-14T01:36:05.312Z,96139.88
2023-03-14T01:38:38.937Z,96137.28
2023-03-14T01:41:18.148Z,96134.75
2023-03-14T01:43:50.686Z,96136.59
2023-03-14T01:46:32.503Z,96141.09
2023-03-14T01:49:17.197Z,96150.53
2023-03-14T01:51:53.460Z,96132.22
2023-03-14T01:54:29.215Z,96141.06
2023-03-14T01:57:10.595Z,96127.47
2023-03-14T01:59:42.035Z,96131.44
2023-03-14T02:02:15.960Z,96126.94
2023-03-14T02:04:49.691Z,96122.47
2023-03-14T02:07:26.790Z,96133.03
2023-03-14T02:09:58.482Z,96135.41
2023-03-14T02:12:32.717Z,96118.13
2023-03-14T02:15:08.256Z,96129.63
2023-03-14T02:17:38.979Z,96110.13
2023-03-14T02:20:28.517Z,96118.53
2023-03-14T02:23:00.112Z,96119.56
2023-03-14T02:25:38.810Z,96129.63
2023-03-14T02:28:10.970Z,96127.75
2023-03-14T02:30:43.164Z,96117.69
2023-03-14T02:33:19.494Z,96118.78
2023-03-14T02:35:53.767Z,96109.78
2023-03-14T02:38:28.496Z,96121.03
2023-03-14T02:41:02.674Z,96118.13
2023-03-14T02:43:41.086Z,96121.53
2023-03-14T02:46:13.962Z,96100.94
2023-03-14T02:48:48.802Z,96084.78
2023-03-14T02:51:20.354Z,96086.28
2023-03-14T02:53:53.417Z,96102.06
2023-03-14T02:56:25.523Z,96085.75
2023-03-14T02:58:58.957Z,96090.50
2023-03-14T03:01:29.508Z,96084.78
2023-03-14T03:03:59.604Z,96084.69
2023-03-14T03:06:33.116Z,96099.69
2023-03-14T03:09:04.203Z,96095.00
2023-03-14T03:11:38.392Z,96100.03
2023-03-14T03:14:11.097Z,96091.59
2023-03-14T03:16:43.683Z,96093.53
2023-03-14T03:19:15.067Z,96102.00
2023-03-14T03:21:46.170Z,96098.34
2023-03-14T03:24:16.888Z,96089.19
2023-03-14T03:26:50.088Z,96084.13
2023-03-14T03:29:23.775Z,96103.72
2023-03-14T03:31:54.536Z,96089.84
2023-03-14T03:34:25.767Z,96114.94
2023-03-14T03:36:59.801Z,96103.88
2023-03-14T03:39:31.322Z,96100.94
2023-03-14T03:42:01.895Z,96106.50
2023-03-14T03:44:35.912Z,96109.16
2023-03-14T03:47:11.017Z,96109.16
2023-03-14T03:49:42.711Z,96136.72
2023-03-14T03:52:14.844Z,96117.88
2023-03-14T03:54:45.969Z,96114.25
2023-03-14T03:57:16.780Z,96119.16
2023-03-14T03:59:50.196Z,96106.28
2023-03-14T04:02:22.467Z,96127.66
2023-03-14T04:04:53.252Z,96151.03
2023-03-14T04:07:26.714Z,96144.09
2023-03-14T04:09:59.374Z,96131.56
2023-03-14T04:12:30.282Z,96117.06
2023-03-14T04:15:07.678Z,96136.72
2023-03-14T04:17:39.879Z,96141.19
2023-03-14T04:20:14.233Z,96143.53
2023-03-14T04:22:46.374Z,96150.03
2023-03-14T04:25:19.283Z,96145.19
2023-03-14T04:27:53.388Z,96140.47
2023-03-14T04:30:30.531Z,96149.38
2023-03-14T04:33:05.276Z,96148.28
2023-03-14T04:35:36.797Z,96135.06
2023-03-14T04:38:08.551Z,96126.66
2023-03-14T04:40:43.566Z,96132.38
2023-03-14T04:43:14.456Z,96135.09
2023-03-14T04:45:50.030Z,96121.78
2023-03-14T04:48:28.443Z,96115.03
2023-03-14T04:51:02.252Z,96116.50
2023-03-14T04:53:35.690Z,96123.97
2023-03-14T04:56:07.161Z,96126.00
2023-03-14T04:58:38.677Z,96125.31
2023-03-14T05:01:13.010Z,96132.91
2023-03-14T05:03:44.861Z,96127.22
2023-03-14T05:06:18.892Z,96130.69
2023-03-14T05:08:49.931Z,96116.03
2023-03-14T05:11:23.579Z,96107.00
2023-03-14T05:13:54.269Z,96109.00
2023-03-14T05:16:26.849Z,96109.75
2023-03-14T05:18:58.531Z,96095.38
2023-03-14T05:21:31.138Z,96108.53
2023-03-14T05:24:03.172Z,96096.56
2023-03-14T05:26:34.722Z,96103.59
2023-03-14T05:29:07.421Z,96099.72
2023-03-14T05:31:39.311Z,96089.25
2023-03-14T05:34:11.318Z,96102.06
2023-03-14T05:36:42.746Z,96101.34
2023-03-14T05:39:14.105Z,96100.59
2023-03-14T05:41:45.140Z,96069.53
2023-03-14T05:44:16.137Z,96080.00
2023-03-14T05:46:49.160Z,96083.47
2023-03-14T05:49:19.520Z,96088.78
2023-03-14T05:51:50.727Z,96093.41
2023-03-14T05:54:22.811Z,96081.31
2023-03-14T05:56:53.396Z,96075.50
2023-03-14T05:59:24.505Z,96090.22
2023-03-14T06:01:56.771Z,96090.88
2023-03-14T06:04:26.859Z,96069.81
2023-03-14T06:06:58.451Z,96061.16
2023-03-14T06:09:29.755Z,96059.22
2023-03-14T06:12:01.469Z,96068.53
2023-03-14T06:14:31.782Z,96054.56
2023-03-14T06:17:04.429Z,96060.84
2023-03-14T06:19:36.518Z,96054.88
2023-03-14T06:22:06.734Z,96046.78
2023-03-14T06:24:45.923Z,96058.66
2023-03-14T06:27:16.850Z,96085.38
2023-03-14T06:29:49.758Z,96070.69
2023-03-14T06:32:22.463Z,96077.47
2023-03-14T06:34:58.782Z,96080.94
2023-03-14T06:37:33.393Z,96074.00
2023-03-14T06:40:07.364Z,96063.84
2023-03-14T06:42:38.904Z,96069.25
2023-03-14T06:45:12.958Z,96083.50
2023-03-14T06:47:47.481Z,96079.50
2023-03-14T06:50:24.039Z,96089.44
2023-03-14T06:52:58.573Z,96085.88
2023-03-14T06:55:31.920Z,96074.72
2023-03-14T06:58:03.429Z,96072.50
2023-03-14T07:00:35.999Z,96052.38
2023-03-14T07:03:12.952Z,96043.06
2023-03-14T07:05:45.123Z,96048.22
2023-03-14T07:08:17.676Z,96044.63
2023-03-14T07:10:50.768Z,96050.03
2023-03-14T07:13:23.330Z,96048.84
2023-03-14T07:15:56.932Z,96033.22
2023-03-14T07:18:30.600Z,96033.13
2023-03-14T07:21:01.592Z,96041.00
2023-03-14T07:23:32.678Z,96062.84
2023-03-14T07:26:03.788Z,96075.81
2023-03-14T07:28:36.525Z,96070.28
2023-03-14T07:31:11.092Z,96057.81
2023-03-14T07:33:47.728Z,96063.09
2023-03-14T07:36:22.491Z,96064.91
2023-03-14T07:38:56.530Z,96043.44
2023-03-14T07:41:30.621Z,96047.22
2023-03-14T07:44:02.934Z,96048.47
2023-03-14T07:46:37.649Z,96030.31
2023-03-14T07:49:11.931Z,96032.28
2023-03-14T07:51:42.963Z,96011.56
2023-03-14T07:54:16.010Z,96005.16
2023-03-14T07:56:48.890Z,96003.41
2023-03-14T07:59:24.082Z,95993.19
2023-03-14T08:01:55.814Z,96008.91
2023-03-14T08:04:29.214Z,95995.66
2023-03-14T08:07:03.891Z,95983.75
2023-03-14T08:09:34.787Z,95983.44
2023-03-14T08:12:06.555Z,95982.25
2023-03-14T08:14:38.160Z,95972.16
2023-03-14T08:17:09.623Z,95981.00
2023-03-14T08:19:45.332Z,95979.81
2023-03-14T08:22:20.113Z,95969.25
2023-03-14T08:24:52.337Z,95961.25
2023-03-14T08:27:24.121Z,95959.28
2023-03-14T08:29:57.552Z,95954.56
2023-03-14T08:32:27.972Z,95959.53
2023-03-14T08:35:01.314Z,95962.41
2023-03-14T08:37:34.960Z,95968.59
2023-03-14T08:40:09.400Z,95966.16
2023-03-14T08:42:40.827Z,95964.94
2023-03-14T08:45:15.898Z,95950.22
2023-03-14T08:47:49.375Z,95949.34
2023-03-14T08:50:25.341Z,95953.53
2023-03-14T08:53:01.639Z,95940.94
2023-03-14T08:55:32.207Z,95957.81
2023-03-14T08:58:03.197Z,95963.41
2023-03-14T09:00:33.617Z,95975.75
2023-03-14T09:03:04.640Z,95978.06
2023-03-14T09:05:39.204Z,95970.88
2023-03-14T09:08:09.559Z,95972.78
2023-03-14T09:10:41.221Z,95968.84
2023-03-14T09:13:12.666Z,95954.38
2023-03-14T09:15:43.667Z,95948.97
2023-03-14T09:18:14.240Z,95955.63
2023-03-14T09:20:46.665Z,95949.53
2023-03-14T09:23:17.922Z,95944.50
2023-03-14T09:25:48.132Z,95956.25
2023-03-14T09:28:19.968Z,95951.63
2023-03-14T09:30:50.878Z,95953.44
2023-03-14T09:33:21.889Z,95949.66
2023-03-14T09:35:55.167Z,95954.25
2023-03-14T09:38:29.069Z,95962.38
2023-03-14T09:41:02.358Z,95952.31
2023-03-14T09:43:35.635Z,95942.16
2023-03-14T09:46:07.093Z,95951.53
2023-03-14T09:48:39.146Z,95947.97
2023-03-14T09:51:17.943Z,95955.19
2023-03-14T09:53:50.229Z,95951.06
2023-03-14T09:56:23.459Z,95945.78
2023-03-14T09:58:56.334Z,95941.88
2023-03-14T10:01:32.395Z,95935.81
2023-03-14T10:04:08.202Z,95944.09
2023-03-14T10:06:40.380Z,95938.66
2023-03-14T10:09:14.282Z,95940.56
2023-03-14T10:11:45.927Z,95939.25
2023-03-14T10:14:32.728Z,95928.34
2023-03-14T10:17:11.671Z,95934.75
2023-03-14T10:19:55.980Z,95918.75
2023-03-14T10:22:33.054Z,95911.63
2023-03-14T10:25:06.051Z,95905.22
2023-03-14T10:27:38.647Z,95901.75
2023-03-14T10:30:11.157Z,95902.97
2023-03-14T10:32:50.229Z,95892.22
2023-03-14T10:35:25.763Z,95910.91
2023-03-14T10:38:00.849Z,95916.25
2023-03-14T10:40:35.766Z,95909.63
2023-03-14T10:43:22.781Z,95901.06
2023-03-14T10:45:59.507Z,95890.38
2023-03-14T10:48:35.539Z,95890.31
2023-03-14T10:51:08.884Z,95893.22
2023-03-14T10:53:49.918Z,95894.25
2023-03-14T10:56:22.535Z,95905.59
2023-03-14T10:58:54.958Z,95920.06
2023-03-14T11:01:38.601Z,95930.28
2023-03-14T11:04:21.182Z,95926.41
2023-03-14T11:07:03.395Z,95931.25
2023-03-14T11:09:42.983Z,95935.97
2023-03-14T11:12:30.328Z,95923.06
2023-03-14T11:15:06.226Z,95941.19
2023-03-14T11:17:43.185Z,95946.72
2023-03-14T11:20:35.204Z,95949.69
2023-03-14T11:23:12.575Z,95949.16
2023-03-14T11:25:51.040Z,95950.97
2023-03-14T11:28:29.414Z,95950.56
2023-03-14T11:31:07.714Z,95954.78
2023-03-14T11:33:41.435Z,95944.25
2023-03-14T11:36:12.432Z,95927.97
2023-03-14T11:38:46.470Z,95920.63
2023-03-14T11:41:21.478Z,95903.06
2023-03-14T11:43:55.237Z,95892.00
2023-03-14T11:46:29.162Z,95904.25
2023-03-14T11:49:07.393Z,95900.63
2023-03-14T11:51:40.896Z,95897.19
2023-03-14T11:54:18.282Z,95907.41
2023-03-14T11:56:54.572Z,95913.94
2023-03-14T11:59:40.993Z,95907.06
2023-03-14T12:02:19.637Z,95915.66
2023-03-14T12:05:06.970Z,95918.09
2023-03-14T12:07:43.202Z,95925.84
2023-03-14T12:10:14.323Z,95926.91
2023-03-14T12:12:47.297Z,95923.38
2023-03-14T12:15:26.451Z,95924.28
2023-03-14T12:17:59.969Z,95931.47
2023-03-14T12:20:31.419Z,95930.63
2023-03-14T12:23:07.750Z,95933.88
2023-03-14T12:25:38.641Z,95930.34
2023-03-14T12:28:22.285Z,95935.50
2023-03-14T12:30:55.278Z,95931.53
2023-03-14T12:33:45.235Z,95917.97
2023-03-14T12:36:51.755Z,95915.88
2023-03-14T12:39:34.473Z,95915.28
2023-03-14T12:42:07.392Z,95922.09
2023-03-14T12:44:48.600Z,95910.91
2023-03-14T12:47:58.788Z,95909.97
2023-03-14T12:50:42.829Z,95916.38
2023-03-14T12:53:42.310Z,95934.69
2023-03-14T12:56:26.069Z,95917.56
2023-03-14T12:59:19.795Z,95910.81
2023-03-14T13:01:57.964Z,95922.09
2023-03-14T13:04:42.692Z,95924.34
2023-03-14T13:07:16.991Z,95937.63
2023-03-14T13:09:58.324Z,95925.25
2023-03-14T13:12:37.661Z,95920.25
2023-03-14T13:15:20.131Z,95915.56
2023-03-14T13:17:53.130Z,95940.19
2023-03-14T13:20:30.483Z,95941.28
2023-03-14T13:23:01.045Z,95935.84
2023-03-14T13:25:35.180Z,95930.03
2023-03-14T13:28:05.983Z,95932.28
2023-03-14T13:30:44.201Z,95927.38
2023-03-14T13:33:22.391Z,95928.53
2023-03-14T13:35:57.523Z,95932.47
2023-03-14T13:38:28.978Z,95940.84
2023-03-14T13:41:01.402Z,95948.63
2023-03-14T13:43:35.599Z,95941.13
2023-03-14T13:46:09.091Z,95932.38
2023-03-14T13:48:46.264Z,95941.28
2023-03-14T13:51:19.523Z,95947.88
2023-03-14T13:53:51.948Z,95935.38
2023-03-14T13:56:24.312Z,95941.88
2023-03-14T13:58:54.636Z,95935.13
2023-03-14T14:01:27.418Z,95941.66
2023-03-14T14:04:00.925Z,95939.41
2023-03-14T14:06:33.798Z,95935.13
2023-03-14T14:09:06.401Z,95934.25
2023-03-14T14:12:03.916Z,95936.59
2023-03-14T14:14:42.766Z,95944.69
2023-03-14T14:17:15.917Z,95938.88
2023-03-14T14:19:47.790Z,95943.47
2023-03-14T14:22:19.144Z,95936.59
2023-03-14T14:24:53.398Z,95928.34
2023-03-14T14:27:32.926Z,95923.63
2023-03-14T14:30:05.452Z,95927.97
2023-03-14T14:32:41.128Z,95929.34
2023-03-14T14:35:26.175Z,95928.69
2023-03-14T14:37:56.889Z,95928.69
2023-03-14T14:40:29.889Z,95921.22
2023-03-14T14:43:07.032Z,95926.06
2023-03-14T14:45:38.259Z,95921.22
2023-03-14T14:48:13.062Z,95922.31
2023-03-14T14:51:02.572Z,95922.16
2023-03-14T14:53:38.975Z,95917.16
2023-03-14T14:56:18.252Z,95915.44
2023-03-14T14:58:50.287Z,95899.97
2023-03-14T15:01:22.292Z,95903.88
2023-03-14T15:03:54.870Z,95902.50
2023-03-14T15:06:32.738Z,95906.50
2023-03-14T15:09:04.544Z,95903.72
2023-03-14T15:11:35.593Z,95909.94
2023-03-14T15:14:08.921Z,95913.75
2023-03-14T15:16:42.604Z,95918.75
2023-03-14T15:19:25.440Z,95923.81
2023-03-14T15:21:58.362Z,95924.78
2023-03-14T15:24:28.925Z,95931.34
2023-03-14T15:27:01.123Z,95925.91
2023-03-14T15:29:32.227Z,95925.03
2023-03-14T15:32:02.914Z,95925.69
2023-03-14T15:34:34.720Z,95925.31
2023-03-14T15:37:14.146Z,95925.13
2023-03-14T15:39:44.749Z,95928.63
2023-03-14T15:42:16.256Z,95932.56
2023-03-14T15:44:46.661Z,95933.78
2023-03-14T15:47:18.426Z,95931.53
2023-03-14T15:49:49.224Z,95940.38
2023-03-14T15:52:22.650Z,95933.03
2023-03-14T15:54:54.068Z,95923.19
2023-03-14T15:57:26.623Z,95932.94
2023-03-14T15:59:57.969Z,95926.56
2023-03-14T16:02:29.345Z,95931.16
2023-03-14T16:05:01.268Z,95941.97
2023-03-14T16:07:34.605Z,95947.13
2023-03-14T16:10:06.743Z,95952.16
2023-03-14T16:12:41.323Z,95943.94
2023-03-14T16:15:13.938Z,95959.63
2023-03-14T16:17:44.976Z,95957.44
2023-03-14T16:20:16.511Z,95952.25
2023-03-14T16:22:48.921Z,95960.06
2023-03-14T16:25:21.187Z,95969.94
2023-03-14T16:28:05.186Z,95972.94
2023-03-14T16:30:41.563Z,95974.22
2023-03-14T16:33:13.254Z,95974.34
2023-03-14T16:35:57.499Z,95981.53
2023-03-14T16:41:24.519Z,95987.72
2023-03-14T16:43:56.698Z,95995.41
2023-03-14T16:46:29.664Z,95990.66
2023-03-14T16:49:01.577Z,95986.19
2023-03-14T16:51:33.636Z,96000.19
2023-03-14T16:54:06.114Z,95998.88
2023-03-14T16:56:37.992Z,95999.06
2023-03-14T16:59:09.906Z,96008.97
2023-03-14T17:01:41.628Z,96009.16
2023-03-14T17:04:12.343Z,96015.94
2023-03-14T17:06:45.111Z,96020.13
2023-03-14T17:09:17.580Z,96026.34
2023-03-14T17:11:52.427Z,96021.75
2023-03-14T17:14:24.877Z,96029.13
2023-03-14T17:16:55.906Z,96020.22
2023-03-14T17:19:29.339Z,96025.16
2023-03-14T17:22:21.325Z,96026.47
2023-03-14T17:24:53.234Z,96042.00
2023-03-14T17:27:23.932Z,96044.28
2023-03-14T17:29:54.387Z,96047.63
2023-03-14T17:32:27.248Z,96053.69
2023-03-14T17:34:57.954Z,96060.84
2023-03-14T17:37:29.038Z,96055.81
2023-03-14T17:40:04.691Z,96061.09
2023-03-14T17:42:39.940Z,96069.81
2023-03-14T17:45:12.009Z,96065.63
2023-03-14T17:47:44.420Z,96077.88
2023-03-14T17:50:15.950Z,96086.19
2023-03-14T17:52:46.797Z,96086.78
2023-03-14T17:55:20.187Z,96087.34
2023-03-14T17:57:52.144Z,96093.09
2023-03-14T18:00:27.622Z,96100.22
2023-03-14T18:02:59.746Z,96106.28
2023-03-14T18:05:32.458Z,96101.56
2023-03-14T18:08:04.053Z,96105.50
2023-03-14T18:10:36.581Z,96118.19
2023-03-14T18:13:07.666Z,96110.59
2023-03-14T18:15:38.847Z,96118.50
2023-03-14T18:18:11.439Z,96116.25
2023-03-14T18:20:54.571Z,96122.72
2023-03-14T18:23:25.964Z,96131.13
2023-03-14T18:26:02.379Z,96119.38
2023-03-14T18:28:33.146Z,96127.50
2023-03-14T18:31:04.994Z,96124.41
2023-03-14T18:33:40.607Z,96125.13
2023-03-14T18:36:13.398Z,96130.53
2023-03-14T18:38:46.354Z,96137.75
2023-03-14T18:41:20.441Z,96148.78
2023-03-14T18:43:52.901Z,96149.84
2023-03-14T18:46:24.692Z,96150.75
2023-03-14T18:48:58.303Z,96148.63
2023-03-14T18:51:31.242Z,96157.59
2023-03-14T18:54:09.310Z,96153.50
2023-03-14T18:56:43.284Z,96150.47
2023-03-14T18:59:14.219Z,96149.28
2023-03-14T19:01:44.781Z,96142.00
2023-03-14T19:04:15.518Z,96144.25
2023-03-14T19:06:45.607Z,96143.00
2023-03-14T19:09:17.748Z,96152.28
2023-03-14T19:11:55.168Z,96149.44
2023-03-14T19:14:26.258Z,96154.66
2023-03-14T19:16:57.011Z,96157.34
2023-03-14T19:19:28.560Z,96157.47
2023-03-14T19:21:59.840Z,96153.84
2023-03-14T19:24:30.221Z,96163.63
2023-03-14T19:27:01.670Z,96165.41
2023-03-14T19:29:35.828Z,96172.63
2023-03-14T19:32:07.026Z,96181.38
2023-03-14T19:34:38.417Z,96188.66
2023-03-14T19:37:09.282Z,96187.19
2023-03-14T19:39:39.950Z,96195.06
2023-03-14T19:42:13.014Z,96195.25
2023-03-14T19:44:45.069Z,96190.00
2023-03-14T19:47:17.026Z,96200.91
2023-03-14T19:49:47.814Z,96195.34
2023-03-14T19:52:21.271Z,96202.31
2023-03-14T19:54:53.558Z,96206.97
2023-03-14T19:57:26.653Z,96201.44
2023-03-14T19:59:58.495Z,96216.97
2023-03-14T20:02:29.695Z,96216.63
2023-03-14T20:05:02.993Z,96221.00
2023-03-14T20:07:34.920Z,96224.34
2023-03-14T20:10:11.846Z,96224.91
2023-03-14T20:12:56.561Z,96231.84
2023-03-14T20:15:29.040Z,96240.25
2023-03-14T20:17:59.774Z,96242.84
2023-03-14T20:20:31.930Z,96247.13
2023-03-14T20:23:08.026Z,96245.09
2023-03-14T20:25:40.084Z,96256.22
2023-03-14T20:28:20.431Z,96256.75
2023-03-14T20:30:54.418Z,96262.75
2023-03-14T20:33:25.169Z,96258.72
2023-03-14T20:35:59.763Z,96266.84
2023-03-14T20:38:31.718Z,96263.38
2023-03-14T20:41:02.582Z,96261.94
2023-03-14T20:43:35.356Z,96268.38
2023-03-14T20:46:06.439Z,96267.72
2023-03-14T20:48:39.801Z,96278.50
2023-03-14T20:51:12.909Z,96286.50
2023-03-14T20:53:45.444Z,96281.41
2023-03-14T20:56:15.597Z,96287.59
2023-03-14T20:58:49.245Z,96290.09
2023-03-14T21:01:20.603Z,96298.44
2023-03-14T21:03:50.561Z,96303.34
2023-03-14T21:06:22.456Z,96305.50
2023-03-14T21:08:53.350Z,96308.41
2023-03-14T21:11:23.661Z,96308.44
2023-03-14T21:13:56.609Z,96314.97
2023-03-14T21:16:28.442Z,96319.50
2023-03-14T21:18:58.895Z,96321.19
2023-03-14T21:21:29.618Z,96324.22
2023-03-14T21:24:02.951Z,96326.34
2023-03-14T21:26:35.666Z,96320.97
2023-03-14T21:29:08.045Z,96324.84
2023-03-14T21:31:41.874Z,96322.75
2023-03-14T21:34:18.255Z,96313.50
2023-03-14T21:36:50.767Z,96312.13
2023-03-14T21:39:24.504Z,96303.72
2023-03-14T21:41:55.920Z,96301.13
2023-03-14T21:44:37.481Z,96298.34
2023-03-14T21:47:09.071Z,96299.69
2023-03-14T21:49:45.343Z,96297.91
2023-03-14T21:52:18.130Z,96293.69
2023-03-14T21:54:50.241Z,96302.09
2023-03-14T21:57:31.478Z,96298.09
2023-03-14T22:00:08.741Z,96303.06
2023-03-14T22:02:44.092Z,96299.72
2023-03-14T22:05:21.634Z,96299.16
2023-03-14T22:07:53.200Z,96305.34
2023-03-14T22:10:24.081Z,96298.38
2023-03-14T22:12:58.200Z,96301.16
2023-03-14T22:15:32.216Z,96311.31
2023-03-14T22:18:05.810Z,96304.13
2023-03-14T22:20:38.796Z,96300.41
2023-03-14T22:23:10.450Z,96300.00
2023-03-14T22:25:44.365Z,96308.13
2023-03-14T22:28:16.431Z,96299.88
2023-03-14T22:30:53.065Z,96302.84
2023-03-14T22:33:26.813Z,96303.00
2023-03-14T22:35:59.488Z,96315.31
2023-03-14T22:38:33.653Z,96305.97
2023-03-14T22:41:05.803Z,96323.56
2023-03-14T22:43:36.997Z,96314.81
2023-03-14T22:46:11.604Z,96314.63
2023-03-14T22:48:43.819Z,96319.09
2023-03-14T22:51:17.191Z,96321.66
2023-03-14T22:53:48.174Z,96315.25
2023-03-14T22:56:21.773Z,96315.53
2023-03-14T22:58:53.670Z,96317.94
2023-03-14T23:01:28.049Z,96313.16
2023-03-14T23:03:58.780Z,96315.53
2023-03-14T23:06:29.657Z,96316.44
2023-03-14T23:09:02.653Z,96316.66
2023-03-14T23:11:37.509Z,96317.34
2023-03-14T23:14:08.353Z,96328.00
2023-03-14T23:16:41.771Z,96326.72
2023-03-14T23:19:12.966Z,96328.78
2023-03-14T23:21:44.700Z,96321.44
2023-03-14T23:24:16.569Z,96333.25
2023-03-14T23:26:47.992Z,96335.00
2023-03-14T23:29:18.844Z,96340.31
2023-03-14T23:31:51.111Z,96334.81
2023-03-14T23:34:23.434Z,96339.06
2023-03-14T23:36:54.315Z,96346.72
2023-03-14T23:39:26.017Z,96338.91
2023-03-14T23:41:56.597Z,96342.06
2023-03-14T23:44:29.222Z,96347.72
2023-03-14T23:47:01.514Z,96355.84
2023-03-14T23:49:35.368Z,96358.09
2023-03-14T23:52:06.277Z,96351.91
2023-03-14T23:54:38.922Z,96356.94
2023-03-14T23:57:10.337Z,96358.97
2023-03-14T23:59:43.506Z,96356.38
